Landingville, Pennsylvania
Current Conditions -  °F | °C
As of 2:54 AM on Sunday 26 Oct 2014 (Local Time) from KRDG Reporting Station
Few Clouds Few Clouds  
Wind Chill: 16°   Ceiling: Unl
Heat Index: 16°   Visibility: 10mi
Dew Point:   Wind: 13mph
Humidity: 50%   Direction: 300°WNW
Pressure: 29.61"   Gusts: 20mph
Location:  40.63°N, 76.12°W
Report Text: KRDG 260654Z AUTO 30011G17KT 10SM FEW095 16/06 A2961 RMK AO2 SLP029 T01610056
Loading
Personal Weather Stations






























Interactive Weather Map
Tropical Storm Tracking
New forecast layout! Learn more

10-Day Weather Forecast

Advertisements
Track Severe Weather on mobile